Airport ICAO


14:36 UTC

7°C

Clear skies


An affordable passengers' Moving Map for your aircraft. Made for the iPad and the iPhone
More information here

EGWU Northolt


Northolt UNITED KINGDOM   VFR CAVOK


METAR EGWU 241350Z 31003KT CAVOK 07/02 Q1012 NOSIG 0h46min

TAF EGWU 241321Z 2415/2509 29003KT CAVOK 1h15min





NOTAMS

OPEN